createdAt,value
2022-11-06T00:02:40.122Z,10.65
2022-11-06T00:10:16.496Z,9.80
2022-11-06T00:17:51.505Z,9.02
2022-11-06T00:25:26.760Z,10.15
2022-11-06T00:33:00.374Z,9.60
2022-11-06T00:40:35.861Z,8.60
2022-11-06T00:48:09.635Z,7.40
2022-11-06T00:55:45.448Z,8.77
2022-11-06T01:03:19.378Z,6.55
2022-11-06T01:10:54.424Z,7.20
2022-11-06T01:18:28.130Z,7.43
2022-11-06T01:26:05.400Z,7.03
2022-11-06T01:33:39.438Z,6.00
2022-11-06T01:41:16.367Z,6.67
2022-11-06T01:48:55.132Z,7.03
2022-11-06T01:56:30.618Z,6.53
2022-11-06T02:04:08.832Z,5.55
2022-11-06T02:11:45.967Z,6.80
2022-11-06T02:19:41.130Z,6.22
2022-11-06T02:27:18.499Z,6.50
2022-11-06T02:34:55.195Z,5.80
2022-11-06T02:42:32.766Z,6.22
2022-11-06T02:50:11.174Z,6.53
2022-11-06T02:57:50.544Z,5.50
2022-11-06T03:05:31.763Z,5.68
2022-11-06T03:13:15.867Z,6.53
2022-11-06T03:20:56.360Z,5.93
2022-11-06T03:28:35.043Z,6.53
2022-11-06T03:36:14.931Z,6.15
2022-11-06T03:43:52.458Z,6.70
2022-11-06T03:51:31.234Z,6.35
2022-11-06T03:59:09.281Z,6.05
2022-11-06T04:06:48.411Z,5.90
2022-11-06T04:14:27.519Z,5.93
2022-11-06T04:22:15.911Z,6.15
2022-11-06T04:30:03.510Z,6.30
2022-11-06T04:37:44.443Z,6.05
2022-11-06T04:45:25.880Z,6.55
2022-11-06T04:53:01.785Z,6.38
2022-11-06T05:00:37.936Z,6.53
2022-11-06T05:08:16.354Z,6.30
2022-11-06T05:15:56.484Z,6.80
2022-11-06T05:23:30.128Z,6.65
2022-11-06T05:31:06.076Z,6.53
2022-11-06T05:38:40.460Z,6.53
2022-11-06T05:54:09.561Z,5.63
2022-11-06T06:01:45.000Z,6.03
2022-11-06T06:09:18.772Z,6.88
2022-11-06T06:16:53.872Z,7.20
2022-11-06T06:24:27.712Z,5.80
2022-11-06T06:32:02.866Z,6.40
2022-11-06T06:39:36.670Z,6.18
2022-11-06T06:47:11.915Z,6.40
2022-11-06T06:54:45.577Z,7.55
2022-11-06T07:02:21.999Z,7.30
2022-11-06T07:09:55.841Z,6.97
2022-11-06T07:17:30.983Z,7.87
2022-11-06T07:25:05.236Z,6.93
2022-11-06T07:32:40.308Z,7.30
2022-11-06T07:40:14.866Z,7.05
2022-11-06T07:55:23.792Z,8.57
2022-11-06T08:02:59.139Z,9.53
2022-11-06T08:10:32.961Z,7.97
2022-11-06T08:18:09.166Z,7.83
2022-11-06T08:25:43.012Z,7.10
2022-11-06T08:33:19.340Z,8.03
2022-11-06T08:40:53.991Z,8.63
2022-11-06T08:56:03.832Z,8.50
2022-11-06T09:03:38.825Z,7.30
2022-11-06T09:11:13.148Z,6.38
2022-11-06T09:18:48.224Z,7.40
2022-11-06T09:26:22.204Z,5.95
2022-11-06T09:33:57.485Z,6.47
2022-11-06T09:41:37.018Z,6.10
2022-11-06T09:49:20.436Z,5.40
2022-11-06T09:57:00.185Z,6.22
2022-11-06T10:04:43.057Z,4.95
2022-11-06T10:12:26.664Z,6.03
2022-11-06T10:20:12.260Z,5.53
2022-11-06T10:27:58.891Z,4.30
2022-11-06T10:35:38.623Z,5.50
2022-11-06T10:43:26.156Z,5.35
2022-11-06T10:51:13.976Z,4.95
2022-11-06T10:58:47.813Z,4.93
2022-11-06T11:06:22.841Z,4.25
2022-11-06T11:14:24.317Z,5.28
2022-11-06T11:22:00.524Z,5.35
2022-11-06T11:29:42.872Z,4.85
2022-11-06T11:37:26.979Z,4.45
2022-11-06T11:45:14.773Z,4.80
2022-11-06T11:52:53.518Z,4.15
2022-11-06T12:00:29.499Z,4.00
2022-11-06T12:08:04.933Z,3.90
2022-11-06T12:15:47.202Z,4.07
2022-11-06T12:23:29.262Z,4.10
2022-11-06T12:31:09.011Z,4.07
2022-11-06T12:38:50.040Z,3.90
2022-11-06T12:46:40.790Z,3.35
2022-11-06T12:54:35.240Z,3.45
2022-11-06T13:02:24.984Z,3.53
2022-11-06T13:10:21.414Z,3.40
2022-11-06T13:18:02.377Z,3.83
2022-11-06T13:25:44.434Z,2.95
2022-11-06T13:33:24.329Z,2.75
2022-11-06T13:41:04.052Z,2.88
2022-11-06T13:48:47.457Z,2.63
2022-11-06T13:56:47.714Z,2.90
2022-11-06T14:04:43.192Z,2.55
2022-11-06T14:12:21.305Z,3.10
2022-11-06T14:20:05.661Z,2.60
2022-11-06T14:28:07.196Z,2.78
2022-11-06T14:35:55.031Z,2.78
2022-11-06T14:43:33.130Z,2.83
2022-11-06T14:51:09.178Z,3.05
2022-11-06T14:58:51.407Z,2.40
2022-11-06T15:06:45.885Z,2.42
2022-11-06T15:15:01.559Z,2.22
2022-11-06T15:22:41.413Z,2.30
2022-11-06T15:30:18.995Z,2.88
2022-11-06T15:37:56.320Z,3.13
2022-11-06T15:45:31.760Z,2.92
2022-11-06T15:53:24.618Z,3.47
2022-11-06T16:01:00.583Z,3.03
2022-11-06T16:08:34.502Z,3.47
2022-11-06T16:16:33.155Z,3.50
2022-11-06T16:24:14.744Z,3.95
2022-11-06T16:32:00.028Z,3.55
2022-11-06T16:47:26.449Z,3.75
2022-11-06T16:55:03.003Z,4.45
2022-11-06T17:02:48.270Z,5.40
2022-11-06T17:10:37.292Z,4.68
2022-11-06T17:18:16.834Z,4.10
2022-11-06T17:25:53.518Z,3.75
2022-11-06T17:33:28.594Z,4.30
2022-11-06T17:41:02.231Z,4.28
2022-11-06T17:48:37.611Z,4.50
2022-11-06T17:56:11.429Z,5.20
2022-11-06T18:03:46.819Z,4.60
2022-11-06T18:11:20.573Z,4.70
2022-11-06T18:18:56.343Z,5.82
2022-11-06T18:26:30.884Z,4.95
2022-11-06T18:34:06.833Z,5.50
2022-11-06T18:41:40.519Z,5.20
2022-11-06T18:49:16.126Z,5.32
2022-11-06T18:56:49.957Z,5.15
2022-11-06T19:04:27.891Z,5.82
2022-11-06T19:12:01.782Z,4.97
2022-11-06T19:19:37.211Z,6.20
2022-11-06T19:27:11.345Z,5.93
2022-11-06T19:34:46.977Z,6.03
2022-11-06T19:42:20.680Z,6.80
2022-11-06T19:49:55.800Z,5.43
2022-11-06T19:57:30.544Z,5.85
2022-11-06T20:05:06.618Z,6.18
2022-11-06T20:12:40.336Z,8.13
2022-11-06T20:20:15.567Z,7.45
2022-11-06T20:27:49.700Z,8.25
2022-11-06T20:35:24.918Z,7.50
2022-11-06T20:42:58.658Z,8.10
2022-11-06T20:50:34.149Z,8.07
2022-11-06T20:58:07.820Z,9.38
2022-11-06T21:05:42.935Z,9.30
2022-11-06T21:13:16.961Z,8.57
2022-11-06T21:20:52.140Z,9.50
2022-11-06T21:28:26.241Z,10.05
2022-11-06T21:36:09.672Z,8.93
2022-11-06T21:43:44.053Z,9.95
2022-11-06T21:51:21.716Z,10.23
2022-11-06T21:58:57.704Z,10.50
2022-11-06T22:06:32.980Z,10.85
2022-11-06T22:14:09.249Z,11.13
2022-11-06T22:21:44.497Z,11.10
2022-11-06T22:29:18.973Z,11.60
2022-11-06T22:36:54.086Z,12.18
2022-11-06T22:44:27.926Z,12.98
2022-11-06T22:52:03.242Z,12.23
2022-11-06T22:59:36.995Z,10.43
2022-11-06T23:07:12.258Z,11.65
2022-11-06T23:14:46.253Z,12.02
2022-11-06T23:22:39.685Z,10.47
2022-11-06T23:30:15.144Z,11.70
2022-11-06T23:37:50.109Z,11.63
2022-11-06T23:45:41.611Z,10.18
2022-11-06T23:53:18.064Z,11.82
